EBCI METAR and TAF | Updated Today

EBCI METAR

Brussels South Charleroi Airport

Observation time: 18 min. ago

EBCI 251950Z 24014KT 9999 BKN030 15/07 Q1019 NOSIG

Need help? Read our tutorial on how to read METARs or read the parsed version below.

Brussels South Charleroi Airport (EBCI) METAR

  • Weather conditions on Wed, 25 May 2022 19:50:00 +0000 (18 min. ago):
  • Present conditions: Dry
  • Clouds: Broken sky at 914 meters
  • Visibility: Greater than 10 km
  • Wind: 240 degrees at 14 knots
  • Temperature: 15 celsius
  • Dew point: 7 celsius
  • Pressure: 1019 millibars
  • Remarks: None


Useful to know...

EBCI TAF

Brussels South Charleroi Airport

TAF EBCI 251700Z 2518/2624 25012KT 9999 BKN030 BECMG 2521/2523 BKN014 TEMPO 2523/2606 BKN005
Observation time: 3:08 hr. ago
Need help? Read our tutorial on how to read TAFs or read the parsed version below.

Parsed version of TAF for Brussels South Charleroi Airport (EBCI)

  • From 25 May at 18:00 UTC, to day 26 of the month at 24:00 UTC
  • Clouds: Broken sky at 914 meters
  • Visibility: Greater than 10 km
  • Wind: 250 degrees at 12
  • Expected to arise soon, from 25 May at 21:00 UTC, to day 25 of the month at 23:00 UTC
  • Clouds: Broken sky at 427 meters
  • Expected to arise temporarily, from 25 May at 23:00 UTC, to day 26 of the month at 06:00 UTC
  • Clouds: Broken sky at 152 meters